• Join FlightAware (Why Join?)
  • Login
  • US Flag 
09:32AM EDT


 

Airport Tracker/Info


-or-


 

Live Flight TrackerFlight Track Log ✈ DAL1562 ✈ 24-Apr-2013 ✈ KPHL - KDTW

Flight Track Log - Related Links

Times and Time Zones

All times are in EDT time to prevent confusion due to time zone crossing. See the DAL1562 flight status page for this flight to view local times or setup timezone preferences in your user account.

Time Position Orientation Groundspeed Altitude Reporting Facility
EDT Latitude Longitude Course Direction KTS MPH feet Rate Location/Type
05:07PM 39.8667 -75.3000 222° Southwest 179 206 1,100  Level Philadelphia TRACON
05:07PM 39.8561 -75.3122 222° Southwest 208 239 1,400 1,320 Climbing FAA TRACON SMA TRACON (SMA)
05:07PM 39.8547 -75.3383 266° West 214 246 2,000 3,060 Climbing FAA TRACON SMA TRACON (SMA)
05:08PM 39.8464 -75.3972 260° West 242 278 4,500 3,780 Climbing FAA TRACON SMA TRACON (SMA)
05:08PM 39.8431 -75.4242 261° West 240 276 5,800 3,300 Climbing FAA TRACON SMA TRACON (SMA)
05:09PM 39.8417 -75.4503 266° West 238 274 6,700 3,060 Climbing FAA TRACON SMA TRACON (SMA)
05:09PM 39.8403 -75.4833 267° West 239 275 7,900 3,300 Climbing FAA TRACON SMA TRACON (SMA)
05:09PM 39.8458 -75.5117 284° West 256 295 8,900 2,760 Climbing FAA TRACON SMA TRACON (SMA)
05:10PM 39.8492 -75.5386 279° West 244 281 9,700 1,500 Climbing FAA TRACON SMA TRACON (SMA)
05:10PM 39.8514 -75.5717 275° West 248 285 9,900 420 Climbing FAA TRACON SMA TRACON (SMA)
05:10PM 39.8539 -75.6022 276° West 255 293 10,000 120 Climbing FAA TRACON SMA TRACON (SMA)
05:11PM 39.8564 -75.6311 276° West 259 298 10,000 600 Level FAA TRACON SMA TRACON (SMA)
05:11PM 39.8603 -75.6714 277° West 300 345 10,400 1,500 Climbing FAA TRACON SMA TRACON (SMA)
05:11PM 39.8625 -75.7061 275° West 315 362 11,000 1,920 Climbing FAA TRACON SMA TRACON (SMA)
05:12PM 39.8661 -75.7414 278° West 319 367 11,700 1,620 Climbing FAA TRACON SMA TRACON (SMA)
05:12PM 39.8697 -75.7872 276° West 335 386 12,100 1,200 Climbing FAA TRACON SMA TRACON (SMA)
05:12PM 39.8742 -75.8272 278° West 354 407 12,500 1,800 Climbing FAA TRACON SMA TRACON (SMA)
05:13PM 39.8769 -75.8661 275° West 359 413 13,300 2,820 Climbing FAA TRACON SMA TRACON (SMA)
05:13PM 39.8825 -75.9172 278° West 359 413 14,400 2,520 Climbing FAA TRACON SMA TRACON (SMA)
05:13PM 39.8864 -75.9567 277° West 359 413 15,000 1,500 Climbing FAA TRACON SMA TRACON (SMA)
05:14PM 39.8903 -75.9961 277° West 361 415 15,400 1,380 Climbing FAA TRACON SMA TRACON (SMA)
05:14PM 39.8933 -76.0219 279° West 366 421 15,900 1,860 Climbing FAA TRACON SMA TRACON (SMA)
05:16PM 39.9150 -76.3436 275° West 398 458 20,200 1,920 Climbing New York Center
05:17PM 39.9181 -76.4983 272° West 398 458 22,300 1,980 Climbing New York Center
05:18PM 39.9064 -76.6108 262° West 379 436 24,300 1,800 Climbing New York Center
05:19PM 39.8731 -76.7353 251° West 374 430 25,900 1,200 Climbing New York Center
05:20PM 39.8392 -76.8650 251° West 374 430 26,700 900 Climbing New York Center
05:21PM 39.8092 -77.0031 254° West 379 436 27,800 1,080 Climbing New York Center
05:22PM 39.8014 -77.1483 266° West 391 450 28,900 720 Climbing New York Center
05:24PM 39.8297 -77.4308 278° West 400 460 30,000 360 Climbing Cleveland Center
05:25PM 39.8567 -77.5783 283° West 411 473 30,000  Level Cleveland Center
05:26PM 39.8853 -77.7206 285° West 411 473 30,000  Level Cleveland Center
05:27PM 39.9158 -77.8681 285° West 417 480 30,000  Level Cleveland Center
05:28PM 39.9425 -78.0186 283° West 417 480 30,000  Level Cleveland Center
05:29PM 39.9686 -78.1642 283° West 422 486 30,000  Level Cleveland Center
05:30PM 39.9947 -78.3258 282° West 417 480 30,000  Level Cleveland Center
05:31PM 40.0206 -78.4686 283° West 417 480 30,000  Level Cleveland Center
05:32PM 40.0458 -78.6114 283° West 411 473 30,000  Level Cleveland Center
05:33PM 40.0733 -78.7517 284° West 411 473 30,000  Level Cleveland Center
05:34PM 40.1150 -78.8944 291° West 411 473 30,000  Level Cleveland Center
05:35PM 40.1567 -79.0347 291° West 416 479 30,000  Level Cleveland Center
05:36PM 40.2022 -79.1750 293° West 421 484 30,000  Level Cleveland Center
05:37PM 40.2392 -79.2886 293° West 426 490 30,000  Level Cleveland Center
05:38PM 40.2906 -79.4344 295° West 426 490 30,000  Level Cleveland Center
05:39PM 40.3317 -79.5700 292° West 415 478 30,000  Level Cleveland Center
05:40PM 40.3722 -79.7028 292° West 404 465 30,000  Level Cleveland Center
05:41PM 40.4128 -79.8414 291° West 404 465 30,000  Level Cleveland Center
05:42PM 40.4533 -79.9719 292° West 399 459 30,000  Level Cleveland Center
05:43PM 40.4914 -80.1189 289° West 399 459 30,000  Level Cleveland Center
05:44PM 40.5294 -80.2553 290° West 394 453 30,000  Level Cleveland Center
05:45PM 40.5714 -80.3836 293° West 394 453 30,000 -240 Level Cleveland Center
05:46PM 40.6092 -80.5147 291° West 388 447 29,600 -720 Descending Cleveland Center
05:47PM 40.6467 -80.6433 291° West 380 437 28,600 -900 Descending Cleveland Center
05:48PM 40.6925 -80.7639 297° West 374 430 27,800 -720 Descending Cleveland Center
05:49PM 40.7525 -80.8872 303° West 386 444 27,200 -900 Descending Cleveland Center
05:50PM 40.8128 -81.0111 303° West 398 458 26,000 -600 Descending Cleveland Center
05:51PM 40.8747 -81.1406 302° West 417 480 26,100  Climbing Cleveland Center
05:52PM 40.9364 -81.2703 302° West 417 480 26,000 -60 Descending Cleveland Center
05:53PM 40.9900 -81.3836 302° West 417 480 26,000  Level Cleveland Center
05:54PM 41.0494 -81.5111 302° West 411 473 26,000  Level Cleveland Center
05:55PM 41.0942 -81.6383 295° West 393 452 26,000  Level Cleveland Center
05:56PM 41.1117 -81.7628 281° West 357 411 26,000 -300 Level Cleveland Center
05:57PM 41.1353 -81.9008 283° West 350 403 25,500 -900 Descending Cleveland Center
05:58PM 41.1567 -82.0228 283° West 350 403 24,300 -780 Descending Cleveland Center
05:59PM 41.2344 -82.1267 315° West 365 420 24,000 -420 Descending Cleveland Center
06:00PM 41.3569 -82.1764 343° North 407 468 23,500 -900 Descending Cleveland Center
06:01PM 41.4283 -82.2836 312° West 398 458 22,300 -1,200 Descending Cleveland Center
06:02PM 41.4892 -82.3822 309° West 390 449 21,100 -1,560 Descending Cleveland Center
06:03PM 41.5542 -82.4950 308° West 390 449 19,200 -2,760 Descending Cleveland Center
06:04PM 41.6169 -82.5997 309° West 353 406 15,700 -3,360 Descending Cleveland Center
06:05PM 41.6617 -82.6706 310° West 348 400 13,600 -2,760 Descending Cleveland Center
06:05PM 41.6758 -82.6958 307° West 361 415 12,900 -1,500 Descending Cleveland Center
06:06PM 41.7325 -82.7842 311° West 343 395 12,000 -480 Descending Cleveland Center
06:07PM 41.8119 -82.8789 318° Northwest 343 395 12,000 -60 Level Cleveland Center
06:08PM 41.8769 -82.9592 317° Northwest 340 391 11,900  Descending Cleveland Center
06:09PM 41.9481 -83.0483 317° Northwest 337 388 12,000  Climbing Cleveland Center
06:10PM 42.0153 -83.1236 320° Northwest 284 327 11,900 -300 Descending Cleveland Center
06:11PM 42.0619 -83.1814 317° Northwest 217 250 11,500 -540 Descending Cleveland Center
06:12PM 42.1047 -83.2194 327° Northwest 236 272 11,000 -480 Descending Cleveland Center
06:12PM 42.1214 -83.2258 344° North 230 265 11,000 -720 Level Cleveland Center
06:13PM 42.1753 -83.2336 354° North 233 268 10,200 -1,200 Descending Cleveland Center
06:14PM 42.2325 -83.1914 29° Northeast 224 258 8,900 -1,140 Descending Cleveland Center
06:15PM 42.2856 -83.1486 31° Northeast 217 250 8,000 -480 Descending Cleveland Center
06:16PM 42.3322 -83.1111 31° Northeast 221 254 8,000 -840 Level Cleveland Center
06:17PM 42.3831 -83.0822 23° Northeast 207 238 6,500 -1,260 Descending Cleveland Center
06:18PM 42.4172 -83.1369 310° West 195 224 5,600 -780 Descending Cleveland Center
06:19PM 42.3969 -83.2036 248° West 215 247 5,000 -1,020 Descending Cleveland Center
06:20PM 42.3439 -83.2464 211° Southwest 218 251 3,600 -1,260 Descending Cleveland Center
06:21PM 42.2972 -83.2753 205° Southwest 169 194 2,500 -960 Descending Cleveland Center
06:22PM 42.2569 -83.3072 210° Southwest 145 167 1,600 -840 Descending Cleveland Center